createdAt,value
2022-11-22T00:00:10.819Z,9.40
2022-11-22T00:01:12.463Z,9.40
2022-11-22T00:02:13.847Z,9.50
2022-11-22T00:03:15.447Z,9.50
2022-11-22T00:04:16.961Z,9.50
2022-11-22T00:05:18.405Z,9.40
2022-11-22T00:06:19.840Z,9.40
2022-11-22T00:07:21.284Z,9.40
2022-11-22T00:08:22.799Z,9.40
2022-11-22T00:09:24.201Z,9.40
2022-11-22T00:10:25.871Z,9.40
2022-11-22T00:11:27.324Z,9.40
2022-11-22T00:12:28.689Z,9.40
2022-11-22T00:13:30.094Z,9.30
2022-11-22T00:14:31.517Z,9.30
2022-11-22T00:15:33.417Z,9.30
2022-11-22T00:16:34.910Z,9.40
2022-11-22T00:17:36.781Z,9.40
2022-11-22T00:18:38.161Z,9.30
2022-11-22T00:19:39.607Z,9.30
2022-11-22T00:20:40.977Z,9.30
2022-11-22T00:21:42.592Z,9.30
2022-11-22T00:22:45.224Z,9.30
2022-11-22T00:23:46.726Z,9.30
2022-11-22T00:24:49.085Z,9.30
2022-11-22T00:25:50.452Z,9.20
2022-11-22T00:26:52.144Z,9.30
2022-11-22T00:27:54.108Z,9.20
2022-11-22T00:28:55.526Z,9.20
2022-11-22T00:29:57.592Z,9.20
2022-11-22T00:30:59.581Z,9.20
2022-11-22T00:32:01.311Z,9.20
2022-11-22T00:33:02.909Z,9.20
2022-11-22T00:34:04.360Z,9.20
2022-11-22T00:35:06.297Z,9.20
2022-11-22T00:36:07.807Z,9.20
2022-11-22T00:37:09.255Z,9.20
2022-11-22T00:38:10.685Z,9.10
2022-11-22T00:39:12.181Z,9.10
2022-11-22T00:40:13.672Z,9.10
2022-11-22T00:41:15.206Z,9.10
2022-11-22T00:42:16.694Z,9.10
2022-11-22T00:43:18.137Z,9.10
2022-11-22T00:44:19.565Z,9.10
2022-11-22T00:45:20.940Z,9.10
2022-11-22T00:46:22.470Z,9.00
2022-11-22T00:47:24.081Z,9.10
2022-11-22T00:48:25.462Z,9.10
2022-11-22T00:49:27.752Z,9.10
2022-11-22T00:50:29.413Z,9.10
2022-11-22T00:51:31.152Z,9.10
2022-11-22T00:52:32.627Z,9.10
2022-11-22T00:53:34.082Z,9.20
2022-11-22T00:54:35.706Z,9.20
2022-11-22T00:55:37.144Z,9.20
2022-11-22T00:56:38.785Z,9.10
2022-11-22T00:57:40.300Z,9.10
2022-11-22T00:58:42.071Z,9.00
2022-11-22T00:59:43.455Z,9.10
2022-11-22T01:00:45.325Z,9.10
2022-11-22T01:01:46.732Z,9.10
2022-11-22T01:02:48.114Z,9.10
2022-11-22T01:03:49.511Z,9.10
2022-11-22T01:04:50.915Z,9.20
2022-11-22T01:05:52.707Z,9.20
2022-11-22T01:06:54.213Z,9.20
2022-11-22T01:07:55.586Z,9.20
2022-11-22T01:08:57.007Z,9.10
2022-11-22T01:09:58.434Z,9.10
2022-11-22T01:11:01.817Z,9.10
2022-11-22T01:12:03.388Z,9.10
2022-11-22T01:13:05.551Z,9.10
2022-11-22T01:14:07.666Z,9.10
2022-11-22T01:15:09.738Z,9.10
2022-11-22T01:16:12.546Z,9.10
2022-11-22T01:17:14.165Z,9.00
2022-11-22T01:18:15.931Z,9.10
2022-11-22T01:19:17.316Z,9.10
2022-11-22T01:20:18.766Z,9.00
2022-11-22T01:21:20.329Z,9.00
2022-11-22T01:22:21.859Z,9.00
2022-11-22T01:23:23.972Z,9.00
2022-11-22T01:24:25.610Z,9.00
2022-11-22T01:25:27.140Z,9.00
2022-11-22T01:26:29.196Z,9.00
2022-11-22T01:27:30.821Z,9.10
2022-11-22T01:28:32.696Z,9.10
2022-11-22T01:29:34.242Z,9.10
2022-11-22T01:30:35.887Z,9.00
2022-11-22T01:31:37.429Z,9.10
2022-11-22T01:32:38.954Z,9.00
2022-11-22T01:33:40.879Z,9.00
2022-11-22T01:34:42.361Z,9.00
2022-11-22T01:35:44.355Z,9.00
2022-11-22T01:36:45.883Z,9.00
2022-11-22T01:37:47.406Z,9.00
2022-11-22T01:38:49.240Z,9.00
2022-11-22T01:39:50.769Z,9.00
2022-11-22T01:40:53.226Z,9.00
2022-11-22T01:41:54.821Z,9.00
2022-11-22T01:42:58.944Z,9.00
2022-11-22T01:44:28.406Z,8.90
2022-11-22T01:45:30.154Z,8.90
2022-11-22T01:46:38.273Z,8.90
2022-11-22T01:47:39.795Z,8.80
2022-11-22T01:48:55.309Z,8.90
2022-11-22T01:50:06.692Z,8.90
2022-11-22T01:51:21.568Z,8.80
2022-11-22T01:52:26.161Z,8.80
2022-11-22T01:53:31.930Z,8.80
2022-11-22T01:54:38.437Z,8.80
2022-11-22T01:55:41.005Z,8.80
2022-11-22T01:56:45.398Z,8.80
2022-11-22T01:57:47.560Z,8.80
2022-11-22T01:58:55.551Z,8.70
2022-11-22T02:00:01.933Z,8.80
2022-11-22T02:01:07.543Z,8.70
2022-11-22T02:02:09.254Z,8.70
2022-11-22T02:03:13.830Z,8.60
2022-11-22T02:04:17.391Z,8.70
2022-11-22T02:05:22.519Z,8.70
2022-11-22T02:06:32.537Z,8.70
2022-11-22T02:07:45.319Z,8.70
2022-11-22T02:09:03.325Z,8.80
2022-11-22T02:10:05.114Z,8.80
2022-11-22T02:11:09.087Z,8.80
2022-11-22T02:12:12.329Z,8.80
2022-11-22T02:13:16.044Z,8.80
2022-11-22T02:14:21.346Z,8.70
2022-11-22T02:15:22.732Z,8.70
2022-11-22T02:16:24.275Z,8.70
2022-11-22T02:17:26.837Z,8.70
2022-11-22T02:18:28.398Z,8.70
2022-11-22T02:19:40.429Z,8.70
2022-11-22T02:20:42.387Z,8.60
2022-11-22T02:21:48.299Z,8.70
2022-11-22T02:23:06.832Z,8.70
2022-11-22T02:24:21.663Z,8.60
2022-11-22T02:25:36.234Z,8.60
2022-11-22T02:26:37.747Z,8.60
2022-11-22T02:27:39.538Z,8.60
2022-11-22T02:28:41.487Z,8.60
2022-11-22T02:29:43.866Z,8.60
2022-11-22T02:30:45.302Z,8.60
2022-11-22T02:31:47.629Z,8.50
2022-11-22T02:32:49.132Z,8.40
2022-11-22T02:33:50.490Z,8.40
2022-11-22T02:34:52.134Z,8.40
2022-11-22T02:35:54.300Z,8.40
2022-11-22T02:36:56.003Z,8.50
2022-11-22T02:38:17.829Z,8.50
2022-11-22T02:39:27.403Z,8.40
2022-11-22T02:40:34.470Z,8.60
2022-11-22T02:41:37.869Z,8.50
2022-11-22T02:42:42.262Z,8.40
2022-11-22T02:43:46.719Z,8.50
2022-11-22T02:44:48.079Z,8.50
2022-11-22T02:45:50.032Z,8.50
2022-11-22T02:46:55.603Z,8.50
2022-11-22T02:48:12.225Z,8.40
2022-11-22T02:49:15.522Z,8.40
2022-11-22T02:50:17.401Z,8.40
2022-11-22T02:51:19.816Z,8.50
2022-11-22T02:52:21.931Z,8.40
2022-11-22T02:53:23.501Z,8.40
2022-11-22T02:54:24.986Z,8.40
2022-11-22T02:55:26.422Z,8.50
2022-11-22T02:56:27.864Z,8.40
2022-11-22T02:57:29.639Z,8.50
2022-11-22T02:58:31.019Z,8.50
2022-11-22T02:59:32.633Z,8.50
2022-11-22T03:00:35.855Z,8.40
2022-11-22T03:01:37.948Z,8.40
2022-11-22T03:02:39.846Z,8.40
2022-11-22T03:03:41.242Z,8.40
2022-11-22T03:04:42.601Z,8.40
2022-11-22T03:05:44.731Z,8.40
2022-11-22T03:10:11.546Z,8.40
2022-11-22T03:11:12.968Z,8.40
2022-11-22T03:12:14.336Z,8.30
2022-11-22T03:13:15.741Z,8.30
2022-11-22T03:14:17.717Z,8.20
2022-11-22T03:15:19.104Z,8.20
2022-11-22T03:16:20.700Z,8.20
2022-11-22T03:17:22.330Z,8.10
2022-11-22T03:18:24.125Z,8.10
2022-11-22T03:19:25.607Z,8.10
2022-11-22T03:20:27.994Z,8.10
2022-11-22T03:21:29.420Z,8.00
2022-11-22T03:22:31.336Z,8.10
2022-11-22T03:23:33.110Z,8.00
2022-11-22T03:24:34.542Z,8.00
2022-11-22T03:25:40.354Z,8.00
2022-11-22T03:26:41.799Z,8.10
2022-11-22T03:27:43.251Z,8.10
2022-11-22T03:28:45.352Z,8.00
2022-11-22T03:29:46.773Z,8.00
2022-11-22T03:30:48.226Z,8.00
2022-11-22T03:31:49.691Z,8.00
2022-11-22T03:32:51.098Z,8.00
2022-11-22T03:33:52.617Z,8.10
2022-11-22T03:34:54.325Z,8.10
2022-11-22T03:35:57.497Z,8.10
2022-11-22T03:36:59.140Z,8.10
2022-11-22T03:38:00.688Z,8.10
2022-11-22T03:39:02.408Z,8.10
2022-11-22T03:40:04.647Z,8.10
2022-11-22T03:41:06.033Z,8.20
2022-11-22T03:42:07.395Z,8.10
2022-11-22T03:43:08.805Z,8.20
2022-11-22T03:44:10.418Z,8.30
2022-11-22T03:45:11.907Z,8.20
2022-11-22T03:46:15.862Z,8.10
2022-11-22T03:47:17.353Z,8.10
2022-11-22T03:48:19.447Z,8.10
2022-11-22T03:49:20.826Z,8.10
2022-11-22T03:50:22.949Z,8.00
2022-11-22T03:51:24.343Z,8.00
2022-11-22T03:52:25.759Z,8.00
2022-11-22T03:53:27.157Z,8.10
2022-11-22T03:54:28.548Z,8.00
2022-11-22T03:55:30.013Z,8.00
2022-11-22T03:56:31.417Z,8.00
2022-11-22T03:57:32.791Z,8.00
2022-11-22T03:58:35.082Z,8.10
2022-11-22T03:59:36.510Z,8.00
2022-11-22T04:00:37.905Z,8.10
2022-11-22T04:01:39.688Z,8.10
2022-11-22T04:02:41.115Z,8.10
2022-11-22T04:03:43.050Z,8.10
2022-11-22T04:04:44.534Z,8.00
2022-11-22T04:05:45.957Z,7.90
2022-11-22T04:06:47.283Z,8.00
2022-11-22T04:07:49.154Z,8.00
2022-11-22T04:08:50.628Z,8.00
2022-11-22T04:09:52.124Z,8.00
2022-11-22T04:10:53.583Z,8.00
2022-11-22T04:11:55.141Z,8.00
2022-11-22T04:13:00.332Z,8.00
2022-11-22T04:14:20.405Z,8.00
2022-11-22T04:15:21.776Z,8.10
2022-11-22T04:16:23.261Z,8.10
2022-11-22T04:17:43.761Z,8.10
2022-11-22T04:18:45.534Z,8.00
2022-11-22T04:20:07.105Z,8.00
2022-11-22T04:21:27.208Z,8.00
2022-11-22T04:22:28.603Z,8.10
2022-11-22T04:23:33.958Z,8.00
2022-11-22T04:24:54.594Z,8.10
2022-11-22T04:25:56.303Z,8.10
2022-11-22T04:26:58.246Z,8.10
2022-11-22T04:28:00.127Z,8.10
2022-11-22T04:29:09.853Z,8.00
2022-11-22T04:30:14.840Z,8.00
2022-11-22T04:31:39.037Z,8.10
2022-11-22T04:32:46.711Z,8.00
2022-11-22T04:33:48.118Z,8.00
2022-11-22T04:34:49.512Z,7.90
2022-11-22T04:35:51.302Z,8.00
2022-11-22T04:36:52.966Z,8.00
2022-11-22T04:37:54.346Z,8.00
2022-11-22T04:38:56.012Z,8.00
2022-11-22T04:39:57.410Z,8.00
2022-11-22T04:40:58.809Z,8.00
2022-11-22T04:42:19.040Z,8.10
2022-11-22T04:43:44.781Z,8.10
2022-11-22T04:44:46.769Z,8.00
2022-11-22T04:45:48.321Z,8.10
2022-11-22T04:46:49.694Z,8.10
2022-11-22T04:48:00.515Z,8.10
2022-11-22T04:49:01.913Z,8.10
2022-11-22T04:50:27.405Z,8.10
2022-11-22T04:51:47.767Z,8.10
2022-11-22T04:52:55.269Z,8.00
2022-11-22T04:53:56.722Z,8.00
2022-11-22T04:54:58.141Z,8.10
2022-11-22T04:55:59.582Z,8.10
2022-11-22T04:57:01.072Z,8.10
2022-11-22T04:58:02.681Z,8.00
2022-11-22T04:59:04.127Z,8.00
2022-11-22T05:00:06.286Z,8.00
2022-11-22T05:01:08.057Z,8.00
2022-11-22T05:02:09.670Z,8.00
2022-11-22T05:03:11.564Z,8.00
2022-11-22T05:04:13.041Z,8.00
2022-11-22T05:05:14.553Z,7.90
2022-11-22T05:06:15.991Z,8.00
2022-11-22T05:07:17.556Z,7.90
2022-11-22T05:08:20.020Z,7.90
2022-11-22T05:09:21.587Z,7.90
2022-11-22T05:10:26.847Z,8.00
2022-11-22T05:11:28.779Z,8.00
2022-11-22T05:12:30.221Z,8.00
2022-11-22T05:13:37.578Z,8.00
2022-11-22T05:14:39.020Z,8.00
2022-11-22T05:15:40.448Z,8.00
2022-11-22T05:16:41.998Z,8.10
2022-11-22T05:17:43.524Z,8.10
2022-11-22T05:18:58.910Z,8.20
2022-11-22T05:20:00.501Z,8.20
2022-11-22T05:21:06.742Z,8.20
2022-11-22T05:22:08.182Z,8.20
2022-11-22T05:23:28.276Z,8.20
2022-11-22T05:24:29.707Z,8.20
2022-11-22T05:25:31.061Z,8.20
2022-11-22T05:26:35.670Z,8.10
2022-11-22T05:27:37.629Z,8.10
2022-11-22T05:28:39.868Z,8.20
2022-11-22T05:29:41.225Z,8.10
2022-11-22T05:30:42.711Z,8.10
2022-11-22T05:31:51.003Z,8.10
2022-11-22T05:32:54.564Z,8.10
2022-11-22T05:33:57.446Z,8.10
2022-11-22T05:34:59.156Z,8.10
2022-11-22T05:36:00.799Z,8.00
2022-11-22T05:37:02.657Z,8.00
2022-11-22T05:38:04.225Z,8.00
2022-11-22T05:39:05.650Z,7.90
2022-11-22T05:40:07.826Z,7.90
2022-11-22T05:41:11.527Z,7.90
2022-11-22T05:42:13.282Z,7.90
2022-11-22T05:43:14.738Z,7.90
2022-11-22T05:44:16.140Z,7.90
2022-11-22T05:45:18.518Z,8.00
2022-11-22T05:46:24.731Z,7.90
2022-11-22T05:47:26.633Z,7.90
2022-11-22T05:48:28.070Z,7.80
2022-11-22T05:49:29.720Z,7.80
2022-11-22T05:50:31.395Z,7.80
2022-11-22T05:51:34.969Z,7.80
2022-11-22T05:52:36.921Z,7.80
2022-11-22T05:53:39.438Z,7.80
2022-11-22T05:54:41.209Z,7.80
2022-11-22T05:55:42.782Z,7.80
2022-11-22T05:56:44.373Z,7.90
2022-11-22T05:57:46.511Z,7.90
2022-11-22T05:58:48.521Z,7.90
2022-11-22T05:59:50.069Z,7.90
2022-11-22T06:00:51.534Z,7.90
2022-11-22T06:01:53.087Z,7.90
2022-11-22T06:02:59.258Z,7.90
2022-11-22T06:04:00.924Z,7.80
2022-11-22T06:05:03.025Z,7.90
2022-11-22T06:06:05.820Z,7.80
2022-11-22T06:07:10.171Z,7.90
2022-11-22T06:08:13.191Z,7.90
2022-11-22T06:09:14.831Z,7.80
2022-11-22T06:10:16.688Z,7.90
2022-11-22T06:11:23.488Z,7.80
2022-11-22T06:12:25.034Z,7.80
2022-11-22T06:13:26.933Z,7.80
2022-11-22T06:14:28.686Z,7.70
2022-11-22T06:15:30.631Z,7.70
2022-11-22T06:16:32.294Z,7.70
2022-11-22T06:17:33.867Z,7.70
2022-11-22T06:18:35.973Z,7.70
2022-11-22T06:19:37.325Z,7.70
2022-11-22T06:20:38.754Z,7.70
2022-11-22T06:21:40.156Z,7.70
2022-11-22T06:22:41.629Z,7.60
2022-11-22T06:23:43.541Z,7.60
2022-11-22T06:24:44.966Z,7.70
2022-11-22T06:25:46.341Z,7.60
2022-11-22T06:26:47.753Z,7.60
2022-11-22T06:27:49.220Z,7.60
2022-11-22T06:28:50.970Z,7.60
2022-11-22T06:29:52.467Z,7.60
2022-11-22T06:30:54.075Z,7.60
2022-11-22T06:32:00.285Z,7.60
2022-11-22T06:33:04.660Z,7.60
2022-11-22T06:34:06.427Z,7.60
2022-11-22T06:35:08.997Z,7.60
2022-11-22T06:36:14.308Z,7.60
2022-11-22T06:37:16.384Z,7.60
2022-11-22T06:38:17.829Z,7.60
2022-11-22T06:39:19.390Z,7.60
2022-11-22T06:40:20.939Z,7.60
2022-11-22T06:41:25.069Z,7.60
2022-11-22T06:42:26.435Z,7.60
2022-11-22T06:43:31.979Z,7.60
2022-11-22T06:44:34.260Z,7.50
2022-11-22T06:45:35.767Z,7.50
2022-11-22T06:46:37.851Z,7.50
2022-11-22T06:47:39.398Z,7.50
2022-11-22T06:48:42.168Z,7.50
2022-11-22T06:49:45.353Z,7.50
2022-11-22T06:50:46.857Z,7.50
2022-11-22T06:51:48.243Z,7.60
2022-11-22T06:52:53.369Z,7.50
2022-11-22T06:53:56.139Z,7.50
2022-11-22T06:54:57.608Z,7.50
2022-11-22T06:56:04.143Z,7.50
2022-11-22T06:57:05.734Z,7.40
2022-11-22T06:58:07.223Z,7.40
2022-11-22T06:59:09.305Z,7.40
2022-11-22T07:00:11.463Z,7.40
2022-11-22T07:01:18.646Z,7.30
2022-11-22T07:02:20.197Z,7.30
2022-11-22T07:03:21.753Z,7.40
2022-11-22T07:04:23.146Z,7.40
2022-11-22T07:05:26.125Z,7.50
2022-11-22T07:06:31.033Z,7.40
2022-11-22T07:07:32.541Z,7.40
2022-11-22T07:08:34.997Z,7.40
2022-11-22T07:09:38.284Z,7.40
2022-11-22T07:10:39.787Z,7.40
2022-11-22T07:11:41.901Z,7.40
2022-11-22T07:12:43.405Z,7.40
2022-11-22T07:13:45.622Z,7.40
2022-11-22T07:14:47.017Z,7.40
2022-11-22T07:15:59.107Z,7.40
2022-11-22T07:17:00.724Z,7.40
2022-11-22T07:18:02.132Z,7.40
2022-11-22T07:19:04.317Z,7.40
2022-11-22T07:20:06.356Z,7.40
2022-11-22T07:21:16.800Z,7.50
2022-11-22T07:22:18.216Z,7.50
2022-11-22T07:23:19.923Z,7.50
2022-11-22T07:24:21.500Z,7.50
2022-11-22T07:25:23.119Z,7.60
2022-11-22T07:26:26.066Z,7.60
2022-11-22T07:27:27.411Z,7.60
2022-11-22T07:28:28.872Z,7.50
2022-11-22T07:29:30.770Z,7.60
2022-11-22T07:30:32.376Z,7.60
2022-11-22T07:31:34.870Z,7.60
2022-11-22T07:32:36.306Z,7.60
2022-11-22T07:33:38.092Z,7.60
2022-11-22T07:34:39.486Z,7.60
2022-11-22T07:35:40.995Z,7.60
2022-11-22T07:36:42.662Z,7.60
2022-11-22T07:37:44.176Z,7.60
2022-11-22T07:38:45.952Z,7.70
2022-11-22T07:39:47.393Z,7.60
2022-11-22T07:40:48.910Z,7.60
2022-11-22T07:41:50.278Z,7.70
2022-11-22T07:42:57.008Z,7.70
2022-11-22T07:43:59.978Z,7.70
2022-11-22T07:45:01.370Z,7.60
2022-11-22T07:46:05.022Z,7.70
2022-11-22T07:47:06.452Z,7.70
2022-11-22T07:48:07.961Z,7.70
2022-11-22T07:49:09.587Z,7.70
2022-11-22T07:50:11.510Z,7.70
2022-11-22T07:51:12.897Z,7.70
2022-11-22T07:52:14.370Z,7.70
2022-11-22T07:53:15.857Z,7.80
2022-11-22T07:54:17.544Z,7.70
2022-11-22T07:55:18.977Z,7.70
2022-11-22T07:56:20.553Z,7.70
2022-11-22T07:57:22.268Z,7.70
2022-11-22T07:58:23.758Z,7.70
2022-11-22T07:59:25.645Z,7.70
2022-11-22T08:00:27.793Z,7.80
2022-11-22T08:01:29.212Z,7.80
2022-11-22T08:02:30.666Z,7.80
2022-11-22T08:03:32.146Z,7.80
2022-11-22T08:04:33.609Z,7.90
2022-11-22T08:05:35.399Z,7.90
2022-11-22T08:06:36.823Z,7.90
2022-11-22T08:07:38.343Z,8.00
2022-11-22T08:08:40.668Z,8.00
2022-11-22T08:09:42.089Z,7.90
2022-11-22T08:10:44.761Z,7.90
2022-11-22T08:11:46.137Z,7.90
2022-11-22T08:12:47.995Z,7.90
2022-11-22T08:13:49.424Z,7.90
2022-11-22T08:14:50.842Z,7.90
2022-11-22T08:15:54.901Z,7.90
2022-11-22T08:16:57.734Z,8.00
2022-11-22T08:17:59.325Z,8.00
2022-11-22T08:19:00.877Z,8.00
2022-11-22T08:20:02.476Z,8.00
2022-11-22T08:21:12.247Z,8.10
2022-11-22T08:22:14.095Z,8.10
2022-11-22T08:23:15.509Z,8.10
2022-11-22T08:24:17.576Z,8.10
2022-11-22T08:25:19.588Z,8.10
2022-11-22T08:26:21.161Z,8.10
2022-11-22T08:27:22.802Z,8.10
2022-11-22T08:28:24.228Z,8.10
2022-11-22T08:29:26.123Z,8.10
2022-11-22T08:30:27.556Z,8.10
2022-11-22T08:31:29.204Z,8.20
2022-11-22T08:32:30.856Z,8.20
2022-11-22T08:33:32.670Z,8.20
2022-11-22T08:34:34.533Z,8.20
2022-11-22T08:35:36.197Z,8.20
2022-11-22T08:36:38.911Z,8.20
2022-11-22T08:37:40.388Z,8.30
2022-11-22T08:38:42.206Z,8.30
2022-11-22T08:39:43.725Z,8.30
2022-11-22T08:40:45.410Z,8.30
2022-11-22T08:41:46.847Z,8.30
2022-11-22T08:42:48.835Z,8.30
2022-11-22T08:43:51.375Z,8.40
2022-11-22T08:44:53.179Z,8.40
2022-11-22T08:45:57.490Z,8.40
2022-11-22T08:46:59.391Z,8.40
2022-11-22T08:48:00.786Z,8.40
2022-11-22T08:49:03.863Z,8.40
2022-11-22T08:50:06.319Z,8.50
2022-11-22T08:51:10.336Z,8.50
2022-11-22T08:52:11.857Z,8.50
2022-11-22T08:53:13.247Z,8.50
2022-11-22T08:54:15.508Z,8.50
2022-11-22T08:55:16.986Z,8.50
2022-11-22T08:56:18.434Z,8.50
2022-11-22T08:57:19.906Z,8.60
2022-11-22T08:58:22.560Z,8.50
2022-11-22T08:59:24.727Z,8.50
2022-11-22T09:00:32.996Z,8.50
2022-11-22T09:01:35.249Z,8.50
2022-11-22T09:02:36.769Z,8.50
2022-11-22T09:03:39.979Z,8.60
2022-11-22T09:04:41.615Z,8.60
2022-11-22T09:08:27.982Z,8.60
2022-11-22T09:09:37.689Z,8.60
2022-11-22T09:10:39.651Z,8.50
2022-11-22T09:11:41.073Z,8.60
2022-11-22T09:12:46.229Z,8.60
2022-11-22T09:13:47.838Z,8.60
2022-11-22T09:14:49.315Z,8.60
2022-11-22T09:15:50.731Z,8.60
2022-11-22T09:16:52.551Z,8.60
2022-11-22T09:18:01.046Z,8.70
2022-11-22T09:19:02.405Z,8.70
2022-11-22T09:20:05.168Z,8.80
2022-11-22T09:21:09.189Z,8.70
2022-11-22T09:22:10.562Z,8.70
2022-11-22T09:23:12.211Z,8.80
2022-11-22T09:24:13.612Z,8.80
2022-11-22T09:25:15.123Z,8.90
2022-11-22T09:26:19.738Z,8.90
2022-11-22T09:27:21.421Z,8.90
2022-11-22T09:28:22.969Z,8.90
2022-11-22T09:29:26.655Z,8.90
2022-11-22T09:30:28.032Z,8.90
2022-11-22T09:31:32.229Z,8.90
2022-11-22T09:32:34.124Z,8.90
2022-11-22T09:33:37.737Z,9.00
2022-11-22T09:34:39.465Z,8.90
2022-11-22T09:35:40.982Z,8.90
2022-11-22T09:36:42.479Z,8.90
2022-11-22T09:37:43.932Z,8.90
2022-11-22T09:38:46.246Z,8.90
2022-11-22T09:39:48.603Z,8.90
2022-11-22T09:40:50.452Z,9.00
2022-11-22T09:42:21.195Z,8.90
2022-11-22T09:43:41.606Z,9.00
2022-11-22T09:45:01.713Z,8.90
2022-11-22T09:46:20.049Z,9.00
2022-11-22T09:47:29.405Z,9.00
2022-11-22T09:48:42.981Z,9.00
2022-11-22T09:50:07.700Z,9.00
2022-11-22T09:51:15.188Z,8.90
2022-11-22T09:52:32.147Z,8.90
2022-11-22T09:53:49.290Z,8.90
2022-11-22T09:55:03.179Z,8.90
2022-11-22T09:56:11.450Z,8.90
2022-11-22T09:57:22.329Z,8.90
2022-11-22T09:58:51.597Z,8.90
2022-11-22T10:00:21.700Z,8.90
2022-11-22T10:01:47.922Z,8.80
2022-11-22T10:03:00.673Z,8.90
2022-11-22T10:04:21.637Z,8.90
2022-11-22T10:05:30.159Z,8.90
2022-11-22T10:06:42.169Z,8.80
2022-11-22T10:07:59.747Z,8.80
2022-11-22T10:09:29.453Z,8.90
2022-11-22T10:10:42.830Z,8.80
2022-11-22T10:12:12.643Z,8.70
2022-11-22T10:13:22.442Z,8.80
2022-11-22T10:14:41.260Z,8.80
2022-11-22T10:15:56.563Z,8.80
2022-11-22T10:17:20.858Z,8.70
2022-11-22T10:18:40.028Z,8.70
2022-11-22T10:19:54.115Z,8.70
2022-11-22T10:20:55.674Z,8.50
2022-11-22T10:21:57.225Z,8.40
2022-11-22T10:22:59.698Z,8.40
2022-11-22T10:24:01.200Z,8.50
2022-11-22T10:25:13.120Z,8.50
2022-11-22T10:26:33.197Z,8.60
2022-11-22T10:27:34.708Z,8.70
2022-11-22T10:28:53.707Z,8.70
2022-11-22T10:30:13.399Z,8.70
2022-11-22T10:31:17.563Z,8.70
2022-11-22T10:32:34.967Z,8.80
2022-11-22T10:33:57.805Z,8.70
2022-11-22T10:35:31.820Z,8.70
2022-11-22T10:36:52.396Z,8.70
2022-11-22T10:38:26.570Z,8.80
2022-11-22T10:39:40.685Z,8.80
2022-11-22T10:41:16.129Z,8.80
2022-11-22T10:42:45.949Z,8.80
2022-11-22T10:44:08.631Z,8.90
2022-11-22T10:45:28.198Z,8.90
2022-11-22T10:46:51.103Z,8.80
2022-11-22T10:48:24.076Z,8.90
2022-11-22T10:49:28.857Z,8.90
2022-11-22T10:50:30.710Z,8.90
2022-11-22T10:52:00.682Z,8.90
2022-11-22T10:53:28.411Z,8.90
2022-11-22T10:54:45.905Z,9.00
2022-11-22T10:55:55.328Z,9.10
2022-11-22T10:57:14.801Z,9.10
2022-11-22T10:58:40.436Z,9.20
2022-11-22T10:59:59.775Z,9.20
2022-11-22T11:01:26.757Z,9.20
2022-11-22T11:02:43.418Z,9.30
2022-11-22T11:03:48.758Z,9.30
2022-11-22T11:04:52.362Z,9.30
2022-11-22T11:07:25.681Z,9.40
2022-11-22T11:09:02.852Z,9.30
2022-11-22T11:10:11.218Z,9.30
2022-11-22T11:11:15.227Z,9.30
2022-11-22T11:12:37.304Z,9.40
2022-11-22T11:13:45.056Z,9.50
2022-11-22T11:14:49.955Z,9.60
2022-11-22T11:15:56.471Z,9.50
2022-11-22T11:16:59.458Z,9.60
2022-11-22T11:18:04.328Z,9.60
2022-11-22T11:19:11.482Z,9.70
2022-11-22T11:20:27.196Z,9.60
2022-11-22T11:21:28.851Z,9.60
2022-11-22T11:23:12.365Z,9.60
2022-11-22T11:23:56.212Z,9.70
2022-11-22T11:25:28.586Z,9.70
2022-11-22T11:26:36.231Z,9.80
2022-11-22T11:27:42.526Z,9.80
2022-11-22T11:28:44.155Z,9.90
2022-11-22T11:29:54.069Z,10.00
2022-11-22T11:31:09.561Z,9.90
2022-11-22T11:32:19.742Z,9.90
2022-11-22T11:33:30.302Z,10.00
2022-11-22T11:34:33.432Z,10.00
2022-11-22T11:35:35.099Z,9.90
2022-11-22T11:36:38.586Z,10.00
2022-11-22T11:37:40.110Z,10.00
2022-11-22T11:38:41.467Z,10.00
2022-11-22T11:39:46.265Z,10.00
2022-11-22T11:40:47.817Z,10.00
2022-11-22T11:41:50.698Z,10.00
2022-11-22T11:43:15.114Z,10.00
2022-11-22T11:44:34.624Z,10.10
2022-11-22T11:45:36.333Z,10.00
2022-11-22T11:46:40.483Z,10.00
2022-11-22T11:47:41.920Z,10.00
2022-11-22T11:48:43.743Z,10.00
2022-11-22T11:49:51.477Z,10.00
2022-11-22T11:51:05.319Z,9.90
2022-11-22T11:52:23.467Z,9.80
2022-11-22T11:53:26.589Z,9.80
2022-11-22T11:54:41.376Z,9.80
2022-11-22T11:55:42.961Z,9.90
2022-11-22T11:56:50.586Z,9.90
2022-11-22T11:57:53.338Z,10.00
2022-11-22T11:58:57.003Z,10.00
2022-11-22T12:00:01.727Z,10.10
2022-11-22T12:01:11.232Z,10.10
2022-11-22T12:02:16.221Z,10.10
2022-11-22T12:03:20.353Z,10.10
2022-11-22T12:04:25.988Z,10.10
2022-11-22T12:05:32.865Z,10.10
2022-11-22T12:06:34.778Z,10.10
2022-11-22T12:07:36.309Z,10.20
2022-11-22T12:08:37.858Z,10.10
2022-11-22T12:09:45.450Z,10.10
2022-11-22T12:10:59.777Z,10.10
2022-11-22T12:12:17.526Z,10.10
2022-11-22T12:13:30.225Z,10.10
2022-11-22T12:14:49.068Z,10.10
2022-11-22T12:15:55.872Z,10.20
2022-11-22T12:17:05.738Z,10.20
2022-11-22T12:18:27.006Z,10.20
2022-11-22T12:19:28.780Z,10.20
2022-11-22T12:20:53.247Z,10.10
2022-11-22T12:22:00.729Z,10.10
2022-11-22T12:23:10.954Z,10.10
2022-11-22T12:25:40.234Z,10.00
2022-11-22T12:26:42.990Z,10.00
2022-11-22T12:27:44.745Z,10.00
2022-11-22T12:28:47.222Z,10.00
2022-11-22T12:29:48.825Z,10.00
2022-11-22T12:31:04.557Z,10.10
2022-11-22T12:32:20.751Z,10.10
2022-11-22T12:33:34.160Z,10.10
2022-11-22T12:34:46.897Z,10.10
2022-11-22T12:35:49.463Z,10.10
2022-11-22T12:37:04.273Z,10.10
2022-11-22T12:38:18.272Z,10.10
2022-11-22T12:39:24.880Z,10.10
2022-11-22T12:40:39.853Z,10.10
2022-11-22T12:41:43.025Z,10.20
2022-11-22T12:42:50.436Z,10.10
2022-11-22T12:43:55.538Z,10.00
2022-11-22T12:45:13.412Z,10.10
2022-11-22T12:46:25.940Z,10.10
2022-11-22T12:47:32.978Z,10.10
2022-11-22T12:49:01.910Z,10.20
2022-11-22T12:50:08.589Z,10.20
2022-11-22T12:51:26.822Z,10.20
2022-11-22T12:52:43.669Z,10.20
2022-11-22T12:53:46.912Z,10.20
2022-11-22T12:55:24.338Z,10.20
2022-11-22T12:56:43.516Z,10.20
2022-11-22T12:58:12.007Z,10.30
2022-11-22T12:59:32.916Z,10.30
2022-11-22T13:00:40.207Z,10.30
2022-11-22T13:01:41.669Z,10.30
2022-11-22T13:03:01.644Z,10.30
2022-11-22T13:04:11.906Z,10.30
2022-11-22T13:05:23.766Z,10.30
2022-11-22T13:06:33.098Z,10.40
2022-11-22T13:07:43.835Z,10.40
2022-11-22T13:08:56.546Z,10.40
2022-11-22T13:10:07.910Z,10.50
2022-11-22T13:11:32.126Z,10.50
2022-11-22T13:12:39.069Z,10.60
2022-11-22T13:13:46.221Z,10.60
2022-11-22T13:14:55.438Z,10.70
2022-11-22T13:16:00.110Z,10.70
2022-11-22T13:17:10.056Z,10.60
2022-11-22T13:18:16.751Z,10.60
2022-11-22T13:19:22.818Z,10.60
2022-11-22T13:20:29.062Z,10.70
2022-11-22T13:21:39.410Z,10.70
2022-11-22T13:23:09.976Z,10.60
2022-11-22T13:24:38.903Z,10.60
2022-11-22T13:26:10.342Z,10.60
2022-11-22T13:27:31.794Z,10.60
2022-11-22T13:28:37.654Z,10.60
2022-11-22T13:29:43.435Z,10.50
2022-11-22T13:31:23.748Z,10.60
2022-11-22T13:32:31.343Z,10.60
2022-11-22T13:33:33.782Z,10.60
2022-11-22T13:34:37.862Z,10.60
2022-11-22T13:35:39.602Z,10.70
2022-11-22T13:36:41.950Z,10.70
2022-11-22T13:37:53.097Z,10.60
2022-11-22T13:38:59.918Z,10.50
2022-11-22T13:40:35.101Z,10.50
2022-11-22T13:42:04.461Z,10.50
2022-11-22T13:43:21.647Z,10.50
2022-11-22T13:44:23.880Z,10.50
2022-11-22T13:45:25.808Z,10.50
2022-11-22T13:46:56.508Z,10.50
2022-11-22T13:47:57.986Z,10.40
2022-11-22T13:49:38.265Z,10.40
2022-11-22T13:50:41.523Z,10.40
2022-11-22T13:51:57.392Z,10.40
2022-11-22T13:53:15.825Z,10.40
2022-11-22T13:54:33.323Z,10.40
2022-11-22T13:55:41.745Z,10.40
2022-11-22T13:56:43.987Z,10.30
2022-11-22T13:57:45.696Z,10.30
2022-11-22T13:59:18.307Z,10.30
2022-11-22T14:00:21.601Z,10.20
2022-11-22T14:01:35.202Z,10.20
2022-11-22T14:02:37.352Z,10.20
2022-11-22T14:03:40.510Z,10.20
2022-11-22T14:04:43.639Z,10.20
2022-11-22T14:05:52.466Z,10.10
2022-11-22T14:07:12.574Z,10.10
2022-11-22T14:08:32.663Z,10.10
2022-11-22T14:09:42.614Z,9.90
2022-11-22T14:11:04.275Z,9.90
2022-11-22T14:12:11.577Z,9.90
2022-11-22T14:13:42.312Z,9.90
2022-11-22T14:15:30.825Z,10.00
2022-11-22T14:16:41.859Z,9.90
2022-11-22T14:18:08.616Z,9.90
2022-11-22T14:19:28.624Z,9.80
2022-11-22T14:20:48.172Z,9.80
2022-11-22T14:22:17.533Z,9.80
2022-11-22T14:23:57.150Z,9.80
2022-11-22T14:25:24.665Z,9.80
2022-11-22T14:26:32.328Z,9.70
2022-11-22T14:27:36.878Z,9.70
2022-11-22T14:29:05.349Z,9.70
2022-11-22T14:30:52.256Z,9.60
2022-11-22T14:32:00.776Z,9.60
2022-11-22T14:33:05.018Z,9.60
2022-11-22T14:34:27.831Z,9.60
2022-11-22T14:35:37.884Z,9.60
2022-11-22T14:36:39.307Z,9.60
2022-11-22T14:37:47.535Z,9.60
2022-11-22T14:38:48.967Z,9.50
2022-11-22T14:39:59.570Z,9.60
2022-11-22T14:41:29.280Z,9.50
2022-11-22T14:42:36.724Z,9.60
2022-11-22T14:43:41.215Z,9.60
2022-11-22T14:44:43.402Z,9.50
2022-11-22T14:45:50.795Z,9.60